sensor_id;sensor_type;location;lat;lon;timestamp;P1;durP1;ratioP1;P2;durP2;ratioP2
19492;SDS011;9887;54.366;10.958;2022-11-20T00:00:52;3.20;;;1.83;;
19492;SDS011;9887;54.366;10.958;2022-11-20T00:03:20;2.38;;;1.40;;
19492;SDS011;9887;54.366;10.958;2022-11-20T00:05:48;3.10;;;2.10;;
19492;SDS011;9887;54.366;10.958;2022-11-20T00:08:16;2.72;;;1.88;;
19492;SDS011;9887;54.366;10.958;2022-11-20T00:10:44;3.67;;;1.90;;
19492;SDS011;9887;54.366;10.958;2022-11-20T00:13:12;2.67;;;1.50;;
19492;SDS011;9887;54.366;10.958;2022-11-20T00:15:42;4.53;;;2.03;;
19492;SDS011;9887;54.366;10.958;2022-11-20T00:18:10;3.30;;;1.83;;
19492;SDS011;9887;54.366;10.958;2022-11-20T00:20:38;8.10;;;2.30;;
19492;SDS011;9887;54.366;10.958;2022-11-20T00:23:05;3.20;;;1.65;;
19492;SDS011;9887;54.366;10.958;2022-11-20T00:25:34;2.75;;;1.60;;
19492;SDS011;9887;54.366;10.958;2022-11-20T00:28:01;3.47;;;1.75;;
19492;SDS011;9887;54.366;10.958;2022-11-20T00:30:29;2.95;;;1.60;;
19492;SDS011;9887;54.366;10.958;2022-11-20T00:32:59;3.05;;;1.60;;
19492;SDS011;9887;54.366;10.958;2022-11-20T00:35:26;2.70;;;1.60;;
19492;SDS011;9887;54.366;10.958;2022-11-20T00:37:54;2.70;;;1.67;;
19492;SDS011;9887;54.366;10.958;2022-11-20T00:40:22;3.38;;;1.70;;
19492;SDS011;9887;54.366;10.958;2022-11-20T00:42:49;1.60;;;1.10;;
19492;SDS011;9887;54.366;10.958;2022-11-20T00:45:17;2.63;;;1.20;;
19492;SDS011;9887;54.366;10.958;2022-11-20T00:47:45;1.38;;;1.00;;
19492;SDS011;9887;54.366;10.958;2022-11-20T00:50:14;1.45;;;1.08;;
19492;SDS011;9887;54.366;10.958;2022-11-20T00:52:42;2.38;;;1.20;;
19492;SDS011;9887;54.366;10.958;2022-11-20T00:55:10;2.17;;;1.20;;
19492;SDS011;9887;54.366;10.958;2022-11-20T00:57:37;1.63;;;1.10;;
19492;SDS011;9887;54.366;10.958;2022-11-20T01:00:06;2.08;;;0.98;;
19492;SDS011;9887;54.366;10.958;2022-11-20T01:02:34;1.58;;;1.00;;
19492;SDS011;9887;54.366;10.958;2022-11-20T01:05:02;1.30;;;0.80;;
19492;SDS011;9887;54.366;10.958;2022-11-20T01:07:31;1.67;;;0.90;;
19492;SDS011;9887;54.366;10.958;2022-11-20T01:09:59;1.40;;;0.90;;
19492;SDS011;9887;54.366;10.958;2022-11-20T01:12:27;1.42;;;0.90;;
19492;SDS011;9887;54.366;10.958;2022-11-20T01:14:55;3.60;;;1.10;;
19492;SDS011;9887;54.366;10.958;2022-11-20T01:17:23;2.30;;;1.30;;
19492;SDS011;9887;54.366;10.958;2022-11-20T01:19:50;1.58;;;1.00;;
19492;SDS011;9887;54.366;10.958;2022-11-20T01:22:18;3.00;;;1.23;;
19492;SDS011;9887;54.366;10.958;2022-11-20T01:24:47;1.88;;;1.20;;
19492;SDS011;9887;54.366;10.958;2022-11-20T01:27:15;2.10;;;1.20;;
19492;SDS011;9887;54.366;10.958;2022-11-20T01:29:43;1.80;;;1.20;;
19492;SDS011;9887;54.366;10.958;2022-11-20T01:32:10;1.77;;;1.00;;
19492;SDS011;9887;54.366;10.958;2022-11-20T01:34:38;2.20;;;1.00;;
19492;SDS011;9887;54.366;10.958;2022-11-20T01:37:06;1.73;;;1.00;;
19492;SDS011;9887;54.366;10.958;2022-11-20T01:39:34;1.52;;;1.00;;
19492;SDS011;9887;54.366;10.958;2022-11-20T01:42:03;1.38;;;0.90;;
19492;SDS011;9887;54.366;10.958;2022-11-20T01:44:49;1.63;;;1.00;;
19492;SDS011;9887;54.366;10.958;2022-11-20T01:47:21;1.65;;;1.00;;
19492;SDS011;9887;54.366;10.958;2022-11-20T01:49:54;1.45;;;1.10;;
19492;SDS011;9887;54.366;10.958;2022-11-20T01:52:27;1.33;;;0.90;;
19492;SDS011;9887;54.366;10.958;2022-11-20T01:55:00;1.48;;;0.98;;
19492;SDS011;9887;54.366;10.958;2022-11-20T01:57:34;1.65;;;1.13;;
19492;SDS011;9887;54.366;10.958;2022-11-20T02:00:04;1.95;;;1.13;;
19492;SDS011;9887;54.366;10.958;2022-11-20T02:02:40;2.67;;;1.60;;
19492;SDS011;9887;54.366;10.958;2022-11-20T02:05:14;2.70;;;1.80;;
19492;SDS011;9887;54.366;10.958;2022-11-20T02:07:46;3.17;;;1.70;;
19492;SDS011;9887;54.366;10.958;2022-11-20T02:10:15;4.07;;;2.40;;
19492;SDS011;9887;54.366;10.958;2022-11-20T02:12:44;3.65;;;2.08;;
19492;SDS011;9887;54.366;10.958;2022-11-20T02:15:29;3.75;;;2.10;;
19492;SDS011;9887;54.366;10.958;2022-11-20T02:17:59;1.92;;;1.20;;
19492;SDS011;9887;54.366;10.958;2022-11-20T02:20:27;1.48;;;0.77;;
19492;SDS011;9887;54.366;10.958;2022-11-20T02:22:56;1.65;;;1.02;;
19492;SDS011;9887;54.366;10.958;2022-11-20T02:25:31;2.55;;;0.80;;
19492;SDS011;9887;54.366;10.958;2022-11-20T02:28:01;0.63;;;0.60;;
19492;SDS011;9887;54.366;10.958;2022-11-20T02:30:29;1.52;;;0.75;;
19492;SDS011;9887;54.366;10.958;2022-11-20T02:32:57;1.05;;;0.77;;
19492;SDS011;9887;54.366;10.958;2022-11-20T02:35:41;0.60;;;0.60;;
19492;SDS011;9887;54.366;10.958;2022-11-20T02:38:10;1.60;;;0.88;;
19492;SDS011;9887;54.366;10.958;2022-11-20T02:40:40;1.00;;;0.80;;
19492;SDS011;9887;54.366;10.958;2022-11-20T02:43:08;1.05;;;0.70;;
19492;SDS011;9887;54.366;10.958;2022-11-20T02:45:36;1.08;;;0.77;;
19492;SDS011;9887;54.366;10.958;2022-11-20T02:48:05;0.80;;;0.70;;
19492;SDS011;9887;54.366;10.958;2022-11-20T02:50:33;0.63;;;0.60;;
19492;SDS011;9887;54.366;10.958;2022-11-20T02:53:04;0.98;;;0.63;;
19492;SDS011;9887;54.366;10.958;2022-11-20T02:55:32;0.70;;;0.70;;
19492;SDS011;9887;54.366;10.958;2022-11-20T02:58:01;0.93;;;0.73;;
19492;SDS011;9887;54.366;10.958;2022-11-20T03:00:29;1.20;;;0.80;;
19492;SDS011;9887;54.366;10.958;2022-11-20T03:02:58;1.73;;;1.00;;
19492;SDS011;9887;54.366;10.958;2022-11-20T03:05:25;2.58;;;1.27;;
19492;SDS011;9887;54.366;10.958;2022-11-20T03:07:53;1.88;;;1.25;;
19492;SDS011;9887;54.366;10.958;2022-11-20T03:10:21;3.08;;;1.67;;
19492;SDS011;9887;54.366;10.958;2022-11-20T03:12:52;4.15;;;1.73;;
19492;SDS011;9887;54.366;10.958;2022-11-20T03:15:22;3.03;;;1.75;;
19492;SDS011;9887;54.366;10.958;2022-11-20T03:17:52;3.28;;;1.90;;
19492;SDS011;9887;54.366;10.958;2022-11-20T03:20:21;4.25;;;2.30;;
19492;SDS011;9887;54.366;10.958;2022-11-20T03:22:49;4.45;;;2.30;;
19492;SDS011;9887;54.366;10.958;2022-11-20T03:25:17;3.88;;;2.33;;
19492;SDS011;9887;54.366;10.958;2022-11-20T03:27:45;3.92;;;2.20;;
19492;SDS011;9887;54.366;10.958;2022-11-20T03:30:13;4.32;;;2.45;;
19492;SDS011;9887;54.366;10.958;2022-11-20T03:32:42;4.28;;;2.15;;
19492;SDS011;9887;54.366;10.958;2022-11-20T03:35:10;3.75;;;2.05;;
19492;SDS011;9887;54.366;10.958;2022-11-20T03:37:38;4.28;;;2.25;;
19492;SDS011;9887;54.366;10.958;2022-11-20T03:40:06;4.20;;;2.25;;
19492;SDS011;9887;54.366;10.958;2022-11-20T03:42:34;3.78;;;2.03;;
19492;SDS011;9887;54.366;10.958;2022-11-20T03:45:15;3.20;;;2.00;;
19492;SDS011;9887;54.366;10.958;2022-11-20T03:47:45;3.95;;;2.45;;
19492;SDS011;9887;54.366;10.958;2022-11-20T03:50:13;3.67;;;2.10;;
19492;SDS011;9887;54.366;10.958;2022-11-20T03:52:41;3.10;;;1.80;;
19492;SDS011;9887;54.366;10.958;2022-11-20T03:55:09;4.20;;;2.13;;
19492;SDS011;9887;54.366;10.958;2022-11-20T03:57:37;3.67;;;2.10;;
19492;SDS011;9887;54.366;10.958;2022-11-20T04:00:05;3.88;;;1.83;;
19492;SDS011;9887;54.366;10.958;2022-11-20T04:02:33;2.88;;;1.70;;
19492;SDS011;9887;54.366;10.958;2022-11-20T04:05:03;4.20;;;2.17;;
19492;SDS011;9887;54.366;10.958;2022-11-20T04:07:33;2.85;;;1.70;;
19492;SDS011;9887;54.366;10.958;2022-11-20T04:10:01;3.38;;;1.70;;
19492;SDS011;9887;54.366;10.958;2022-11-20T04:12:31;3.70;;;1.83;;
19492;SDS011;9887;54.366;10.958;2022-11-20T04:14:59;3.17;;;2.03;;
19492;SDS011;9887;54.366;10.958;2022-11-20T04:17:27;3.47;;;2.05;;
19492;SDS011;9887;54.366;10.958;2022-11-20T04:19:54;3.42;;;1.90;;
19492;SDS011;9887;54.366;10.958;2022-11-20T04:22:24;3.72;;;1.88;;
19492;SDS011;9887;54.366;10.958;2022-11-20T04:24:51;2.67;;;1.67;;
19492;SDS011;9887;54.366;10.958;2022-11-20T04:27:19;4.55;;;1.52;;
19492;SDS011;9887;54.366;10.958;2022-11-20T04:29:47;2.08;;;1.33;;
19492;SDS011;9887;54.366;10.958;2022-11-20T04:32:15;2.10;;;1.30;;
19492;SDS011;9887;54.366;10.958;2022-11-20T04:34:43;2.05;;;1.30;;
19492;SDS011;9887;54.366;10.958;2022-11-20T04:37:11;3.28;;;1.73;;
19492;SDS011;9887;54.366;10.958;2022-11-20T04:39:40;2.78;;;1.63;;
19492;SDS011;9887;54.366;10.958;2022-11-20T04:42:08;3.50;;;1.60;;
19492;SDS011;9887;54.366;10.958;2022-11-20T04:44:55;3.38;;;1.55;;
19492;SDS011;9887;54.366;10.958;2022-11-20T04:47:24;4.13;;;1.42;;
19492;SDS011;9887;54.366;10.958;2022-11-20T04:49:51;4.13;;;1.50;;
19492;SDS011;9887;54.366;10.958;2022-11-20T04:52:19;2.60;;;1.55;;
19492;SDS011;9887;54.366;10.958;2022-11-20T04:54:48;2.58;;;1.60;;
19492;SDS011;9887;54.366;10.958;2022-11-20T04:57:19;2.50;;;1.45;;
19492;SDS011;9887;54.366;10.958;2022-11-20T04:59:46;3.15;;;1.73;;
19492;SDS011;9887;54.366;10.958;2022-11-20T05:02:14;2.92;;;1.40;;
19492;SDS011;9887;54.366;10.958;2022-11-20T05:04:42;3.05;;;1.52;;
19492;SDS011;9887;54.366;10.958;2022-11-20T05:07:10;2.17;;;1.40;;
19492;SDS011;9887;54.366;10.958;2022-11-20T05:09:38;1.95;;;1.40;;
19492;SDS011;9887;54.366;10.958;2022-11-20T05:12:08;3.05;;;1.50;;
19492;SDS011;9887;54.366;10.958;2022-11-20T05:14:36;3.13;;;1.67;;
19492;SDS011;9887;54.366;10.958;2022-11-20T05:17:04;2.55;;;1.48;;
19492;SDS011;9887;54.366;10.958;2022-11-20T05:19:31;2.95;;;1.80;;
19492;SDS011;9887;54.366;10.958;2022-11-20T05:21:59;1.80;;;1.33;;
19492;SDS011;9887;54.366;10.958;2022-11-20T05:24:27;1.95;;;1.38;;
19492;SDS011;9887;54.366;10.958;2022-11-20T05:26:55;2.22;;;1.10;;
19492;SDS011;9887;54.366;10.958;2022-11-20T05:29:24;1.15;;;0.93;;
19492;SDS011;9887;54.366;10.958;2022-11-20T05:31:52;1.70;;;1.20;;
19492;SDS011;9887;54.366;10.958;2022-11-20T05:34:19;2.65;;;1.20;;
19492;SDS011;9887;54.366;10.958;2022-11-20T05:36:47;2.30;;;1.20;;
19492;SDS011;9887;54.366;10.958;2022-11-20T05:39:15;2.78;;;1.20;;
19492;SDS011;9887;54.366;10.958;2022-11-20T05:41:43;3.88;;;1.50;;
19492;SDS011;9887;54.366;10.958;2022-11-20T05:44:10;1.77;;;1.17;;
19492;SDS011;9887;54.366;10.958;2022-11-20T05:46:40;3.50;;;1.65;;
19492;SDS011;9887;54.366;10.958;2022-11-20T05:49:08;2.50;;;1.40;;
19492;SDS011;9887;54.366;10.958;2022-11-20T05:51:35;2.38;;;1.60;;
19492;SDS011;9887;54.366;10.958;2022-11-20T05:54:03;3.00;;;1.45;;
19492;SDS011;9887;54.366;10.958;2022-11-20T05:56:31;2.78;;;1.70;;
19492;SDS011;9887;54.366;10.958;2022-11-20T05:58:59;2.60;;;1.52;;
19492;SDS011;9887;54.366;10.958;2022-11-20T06:01:27;2.60;;;1.77;;
19492;SDS011;9887;54.366;10.958;2022-11-20T06:03:56;3.67;;;2.50;;
19492;SDS011;9887;54.366;10.958;2022-11-20T06:06:24;2.90;;;1.77;;
19492;SDS011;9887;54.366;10.958;2022-11-20T06:08:52;4.72;;;1.50;;
19492;SDS011;9887;54.366;10.958;2022-11-20T06:11:20;3.17;;;1.77;;
19492;SDS011;9887;54.366;10.958;2022-11-20T06:13:48;3.38;;;1.88;;
19492;SDS011;9887;54.366;10.958;2022-11-20T06:16:17;3.47;;;1.15;;
19492;SDS011;9887;54.366;10.958;2022-11-20T06:18:46;2.33;;;1.55;;
19492;SDS011;9887;54.366;10.958;2022-11-20T06:21:16;2.10;;;1.42;;
19492;SDS011;9887;54.366;10.958;2022-11-20T06:23:45;2.15;;;1.40;;
19492;SDS011;9887;54.366;10.958;2022-11-20T06:26:14;3.03;;;1.25;;
19492;SDS011;9887;54.366;10.958;2022-11-20T06:28:43;2.45;;;1.50;;
19492;SDS011;9887;54.366;10.958;2022-11-20T06:31:13;2.83;;;1.50;;
19492;SDS011;9887;54.366;10.958;2022-11-20T06:33:42;1.33;;;1.10;;
19492;SDS011;9887;54.366;10.958;2022-11-20T06:36:10;2.22;;;1.27;;
19492;SDS011;9887;54.366;10.958;2022-11-20T06:38:41;1.63;;;1.00;;
19492;SDS011;9887;54.366;10.958;2022-11-20T06:41:10;1.67;;;1.00;;
19492;SDS011;9887;54.366;10.958;2022-11-20T06:43:40;1.05;;;0.88;;
19492;SDS011;9887;54.366;10.958;2022-11-20T06:46:08;1.17;;;0.80;;
19492;SDS011;9887;54.366;10.958;2022-11-20T06:48:37;0.77;;;0.70;;
19492;SDS011;9887;54.366;10.958;2022-11-20T06:51:05;0.93;;;0.70;;
19492;SDS011;9887;54.366;10.958;2022-11-20T06:53:34;0.68;;;0.68;;
19492;SDS011;9887;54.366;10.958;2022-11-20T06:56:04;0.60;;;0.60;;
19492;SDS011;9887;54.366;10.958;2022-11-20T06:58:33;0.70;;;0.70;;
19492;SDS011;9887;54.366;10.958;2022-11-20T07:01:02;0.82;;;0.80;;
19492;SDS011;9887;54.366;10.958;2022-11-20T07:03:32;1.20;;;0.80;;
19492;SDS011;9887;54.366;10.958;2022-11-20T07:05:59;1.27;;;0.70;;
19492;SDS011;9887;54.366;10.958;2022-11-20T07:08:28;1.40;;;0.95;;
19492;SDS011;9887;54.366;10.958;2022-11-20T07:10:57;0.70;;;0.70;;
19492;SDS011;9887;54.366;10.958;2022-11-20T07:13:27;2.55;;;1.40;;
19492;SDS011;9887;54.366;10.958;2022-11-20T07:15:58;3.00;;;1.55;;
19492;SDS011;9887;54.366;10.958;2022-11-20T07:18:27;1.38;;;0.93;;
19492;SDS011;9887;54.366;10.958;2022-11-20T07:20:55;1.30;;;1.00;;
19492;SDS011;9887;54.366;10.958;2022-11-20T07:23:23;1.33;;;0.98;;
19492;SDS011;9887;54.366;10.958;2022-11-20T07:25:50;1.50;;;1.17;;
19492;SDS011;9887;54.366;10.958;2022-11-20T07:28:18;1.33;;;1.00;;
19492;SDS011;9887;54.366;10.958;2022-11-20T07:30:50;1.15;;;0.90;;
19492;SDS011;9887;54.366;10.958;2022-11-20T07:33:18;3.60;;;1.10;;
19492;SDS011;9887;54.366;10.958;2022-11-20T07:35:46;1.25;;;1.08;;
19492;SDS011;9887;54.366;10.958;2022-11-20T07:38:14;3.28;;;1.42;;
19492;SDS011;9887;54.366;10.958;2022-11-20T07:40:42;2.17;;;1.15;;
19492;SDS011;9887;54.366;10.958;2022-11-20T07:43:10;2.42;;;1.30;;
19492;SDS011;9887;54.366;10.958;2022-11-20T07:45:38;1.75;;;1.15;;
19492;SDS011;9887;54.366;10.958;2022-11-20T07:48:07;1.50;;;1.05;;
19492;SDS011;9887;54.366;10.958;2022-11-20T07:50:35;1.30;;;0.98;;
19492;SDS011;9887;54.366;10.958;2022-11-20T07:53:03;1.63;;;1.10;;
19492;SDS011;9887;54.366;10.958;2022-11-20T07:55:31;3.35;;;1.05;;
19492;SDS011;9887;54.366;10.958;2022-11-20T07:57:59;2.30;;;1.13;;
19492;SDS011;9887;54.366;10.958;2022-11-20T08:00:27;1.50;;;1.10;;
19492;SDS011;9887;54.366;10.958;2022-11-20T08:02:55;3.40;;;1.48;;
19492;SDS011;9887;54.366;10.958;2022-11-20T08:05:24;2.05;;;1.40;;
19492;SDS011;9887;54.366;10.958;2022-11-20T08:07:52;3.00;;;1.52;;
19492;SDS011;9887;54.366;10.958;2022-11-20T08:10:19;2.40;;;1.25;;
19492;SDS011;9887;54.366;10.958;2022-11-20T08:12:48;3.28;;;1.30;;
19492;SDS011;9887;54.366;10.958;2022-11-20T08:15:34;3.67;;;1.58;;
19492;SDS011;9887;54.366;10.958;2022-11-20T08:18:04;2.70;;;1.25;;
19492;SDS011;9887;54.366;10.958;2022-11-20T08:20:55;2.97;;;1.60;;
19492;SDS011;9887;54.366;10.958;2022-11-20T08:23:22;3.55;;;1.70;;
19492;SDS011;9887;54.366;10.958;2022-11-20T08:25:50;2.05;;;1.20;;
19492;SDS011;9887;54.366;10.958;2022-11-20T08:28:18;3.97;;;1.50;;
19492;SDS011;9887;54.366;10.958;2022-11-20T08:30:47;3.67;;;1.58;;
19492;SDS011;9887;54.366;10.958;2022-11-20T08:33:16;3.95;;;2.10;;
19492;SDS011;9887;54.366;10.958;2022-11-20T08:35:44;5.95;;;2.67;;
19492;SDS011;9887;54.366;10.958;2022-11-20T08:38:14;8.85;;;3.80;;
19492;SDS011;9887;54.366;10.958;2022-11-20T08:40:42;6.10;;;2.97;;
19492;SDS011;9887;54.366;10.958;2022-11-20T08:43:31;4.85;;;2.53;;
19492;SDS011;9887;54.366;10.958;2022-11-20T08:45:59;5.88;;;2.92;;
19492;SDS011;9887;54.366;10.958;2022-11-20T08:48:27;4.80;;;2.70;;
19492;SDS011;9887;54.366;10.958;2022-11-20T08:50:57;5.60;;;2.58;;
19492;SDS011;9887;54.366;10.958;2022-11-20T08:53:27;7.07;;;3.20;;
19492;SDS011;9887;54.366;10.958;2022-11-20T08:55:56;4.75;;;2.78;;
19492;SDS011;9887;54.366;10.958;2022-11-20T08:58:24;8.07;;;3.65;;
19492;SDS011;9887;54.366;10.958;2022-11-20T09:00:52;7.07;;;3.53;;
19492;SDS011;9887;54.366;10.958;2022-11-20T09:03:20;6.70;;;2.67;;
19492;SDS011;9887;54.366;10.958;2022-11-20T09:05:51;5.55;;;2.42;;
19492;SDS011;9887;54.366;10.958;2022-11-20T09:08:24;4.55;;;2.40;;
19492;SDS011;9887;54.366;10.958;2022-11-20T09:10:53;3.20;;;1.92;;
19492;SDS011;9887;54.366;10.958;2022-11-20T09:13:22;3.65;;;2.10;;
19492;SDS011;9887;54.366;10.958;2022-11-20T09:15:54;5.15;;;2.00;;
19492;SDS011;9887;54.366;10.958;2022-11-20T09:18:22;4.32;;;2.70;;
19492;SDS011;9887;54.366;10.958;2022-11-20T09:20:50;3.53;;;1.88;;
19492;SDS011;9887;54.366;10.958;2022-11-20T09:23:18;4.70;;;2.45;;
19492;SDS011;9887;54.366;10.958;2022-11-20T09:25:46;3.88;;;2.30;;
19492;SDS011;9887;54.366;10.958;2022-11-20T09:28:15;4.85;;;2.17;;
19492;SDS011;9887;54.366;10.958;2022-11-20T09:30:44;5.03;;;2.53;;
19492;SDS011;9887;54.366;10.958;2022-11-20T09:33:12;6.57;;;3.22;;
19492;SDS011;9887;54.366;10.958;2022-11-20T09:35:40;5.88;;;2.72;;
19492;SDS011;9887;54.366;10.958;2022-11-20T09:38:09;3.45;;;1.83;;
19492;SDS011;9887;54.366;10.958;2022-11-20T09:40:38;27.63;;;12.13;;
19492;SDS011;9887;54.366;10.958;2022-11-20T09:43:12;13.35;;;5.88;;
19492;SDS011;9887;54.366;10.958;2022-11-20T09:45:54;4.70;;;2.78;;
19492;SDS011;9887;54.366;10.958;2022-11-20T09:48:47;6.50;;;3.17;;
19492;SDS011;9887;54.366;10.958;2022-11-20T09:51:30;4.05;;;2.47;;
19492;SDS011;9887;54.366;10.958;2022-11-20T09:54:07;7.82;;;3.22;;
19492;SDS011;9887;54.366;10.958;2022-11-20T09:56:43;5.47;;;2.78;;
19492;SDS011;9887;54.366;10.958;2022-11-20T09:59:22;6.47;;;2.80;;
19492;SDS011;9887;54.366;10.958;2022-11-20T10:02:01;5.22;;;2.85;;
19492;SDS011;9887;54.366;10.958;2022-11-20T10:04:35;6.35;;;3.47;;
19492;SDS011;9887;54.366;10.958;2022-11-20T10:07:11;8.20;;;4.20;;
19492;SDS011;9887;54.366;10.958;2022-11-20T10:09:57;7.15;;;3.45;;
19492;SDS011;9887;54.366;10.958;2022-11-20T10:12:27;6.10;;;3.55;;
19492;SDS011;9887;54.366;10.958;2022-11-20T10:15:07;8.38;;;4.00;;
19492;SDS011;9887;54.366;10.958;2022-11-20T10:17:50;5.28;;;2.40;;
19492;SDS011;9887;54.366;10.958;2022-11-20T10:20:29;4.85;;;2.63;;
19492;SDS011;9887;54.366;10.958;2022-11-20T10:26:03;8.98;;;3.35;;
19492;SDS011;9887;54.366;10.958;2022-11-20T10:28:45;5.70;;;3.03;;
19492;SDS011;9887;54.366;10.958;2022-11-20T10:31:30;6.13;;;3.05;;
19492;SDS011;9887;54.366;10.958;2022-11-20T10:34:01;6.95;;;3.30;;
19492;SDS011;9887;54.366;10.958;2022-11-20T10:36:38;4.88;;;2.40;;
19492;SDS011;9887;54.366;10.958;2022-11-20T10:39:15;6.05;;;3.00;;
19492;SDS011;9887;54.366;10.958;2022-11-20T10:41:50;7.22;;;2.80;;
19492;SDS011;9887;54.366;10.958;2022-11-20T10:44:20;4.72;;;2.60;;
19492;SDS011;9887;54.366;10.958;2022-11-20T10:47:04;6.55;;;3.00;;
19492;SDS011;9887;54.366;10.958;2022-11-20T10:49:37;5.38;;;3.25;;
19492;SDS011;9887;54.366;10.958;2022-11-20T10:52:09;8.55;;;4.40;;
19492;SDS011;9887;54.366;10.958;2022-11-20T10:54:49;5.72;;;2.80;;
19492;SDS011;9887;54.366;10.958;2022-11-20T10:57:25;5.75;;;2.60;;
19492;SDS011;9887;54.366;10.958;2022-11-20T11:00:04;5.15;;;2.58;;
19492;SDS011;9887;54.366;10.958;2022-11-20T11:02:37;4.10;;;2.10;;
19492;SDS011;9887;54.366;10.958;2022-11-20T11:05:14;4.82;;;2.30;;
19492;SDS011;9887;54.366;10.958;2022-11-20T11:07:50;4.97;;;1.98;;
19492;SDS011;9887;54.366;10.958;2022-11-20T11:10:21;4.13;;;2.13;;
19492;SDS011;9887;54.366;10.958;2022-11-20T11:12:53;3.60;;;1.98;;
19492;SDS011;9887;54.366;10.958;2022-11-20T11:15:25;3.55;;;1.90;;
19492;SDS011;9887;54.366;10.958;2022-11-20T11:17:56;4.13;;;2.42;;
19492;SDS011;9887;54.366;10.958;2022-11-20T11:20:24;4.57;;;2.30;;
19492;SDS011;9887;54.366;10.958;2022-11-20T11:22:53;3.55;;;1.98;;
19492;SDS011;9887;54.366;10.958;2022-11-20T11:25:24;3.65;;;1.80;;
19492;SDS011;9887;54.366;10.958;2022-11-20T11:27:56;4.28;;;2.10;;
19492;SDS011;9887;54.366;10.958;2022-11-20T11:30:25;3.15;;;2.15;;
19492;SDS011;9887;54.366;10.958;2022-11-20T11:33:04;5.45;;;2.13;;
19492;SDS011;9887;54.366;10.958;2022-11-20T11:35:33;5.03;;;2.28;;
19492;SDS011;9887;54.366;10.958;2022-11-20T11:38:06;2.92;;;1.75;;
19492;SDS011;9887;54.366;10.958;2022-11-20T11:40:41;15.82;;;5.97;;
19492;SDS011;9887;54.366;10.958;2022-11-20T11:43:16;8.82;;;4.03;;
19492;SDS011;9887;54.366;10.958;2022-11-20T11:46:06;7.53;;;3.70;;
19492;SDS011;9887;54.366;10.958;2022-11-20T11:48:58;4.70;;;2.50;;
19492;SDS011;9887;54.366;10.958;2022-11-20T11:51:32;8.00;;;3.42;;
19492;SDS011;9887;54.366;10.958;2022-11-20T11:54:08;13.20;;;4.28;;
19492;SDS011;9887;54.366;10.958;2022-11-20T11:56:42;10.98;;;4.45;;
19492;SDS011;9887;54.366;10.958;2022-11-20T11:59:12;7.63;;;3.85;;
19492;SDS011;9887;54.366;10.958;2022-11-20T12:01:47;4.50;;;2.85;;
19492;SDS011;9887;54.366;10.958;2022-11-20T12:04:25;5.35;;;2.63;;
19492;SDS011;9887;54.366;10.958;2022-11-20T12:07:07;4.70;;;2.33;;
19492;SDS011;9887;54.366;10.958;2022-11-20T12:09:59;4.70;;;2.30;;
19492;SDS011;9887;54.366;10.958;2022-11-20T12:12:29;5.20;;;2.83;;
19492;SDS011;9887;54.366;10.958;2022-11-20T12:15:03;6.25;;;2.67;;
19492;SDS011;9887;54.366;10.958;2022-11-20T12:17:36;3.60;;;2.28;;
19492;SDS011;9887;54.366;10.958;2022-11-20T12:20:10;3.17;;;1.92;;
19492;SDS011;9887;54.366;10.958;2022-11-20T12:22:41;5.32;;;1.98;;
19492;SDS011;9887;54.366;10.958;2022-11-20T12:25:18;5.63;;;1.98;;
19492;SDS011;9887;54.366;10.958;2022-11-20T12:27:55;4.00;;;1.85;;
19492;SDS011;9887;54.366;10.958;2022-11-20T12:30:50;3.70;;;2.10;;
19492;SDS011;9887;54.366;10.958;2022-11-20T12:33:32;2.60;;;1.70;;
19492;SDS011;9887;54.366;10.958;2022-11-20T12:36:21;3.38;;;1.98;;
19492;SDS011;9887;54.366;10.958;2022-11-20T12:39:02;6.38;;;1.73;;
19492;SDS011;9887;54.366;10.958;2022-11-20T12:41:46;5.05;;;1.80;;
19492;SDS011;9887;54.366;10.958;2022-11-20T12:44:52;6.45;;;1.95;;
19492;SDS011;9887;54.366;10.958;2022-11-20T12:47:43;3.47;;;1.98;;
19492;SDS011;9887;54.366;10.958;2022-11-20T12:50:21;3.20;;;1.90;;
19492;SDS011;9887;54.366;10.958;2022-11-20T12:52:57;3.38;;;1.88;;
19492;SDS011;9887;54.366;10.958;2022-11-20T12:55:32;4.18;;;1.90;;
19492;SDS011;9887;54.366;10.958;2022-11-20T12:58:10;4.18;;;1.92;;
19492;SDS011;9887;54.366;10.958;2022-11-20T13:00:43;3.47;;;1.90;;
19492;SDS011;9887;54.366;10.958;2022-11-20T13:03:26;3.13;;;1.80;;
19492;SDS011;9887;54.366;10.958;2022-11-20T13:06:05;3.97;;;1.65;;
19492;SDS011;9887;54.366;10.958;2022-11-20T13:08:44;3.63;;;1.90;;
19492;SDS011;9887;54.366;10.958;2022-11-20T13:11:20;6.00;;;2.78;;
19492;SDS011;9887;54.366;10.958;2022-11-20T13:14:07;4.20;;;2.15;;
19492;SDS011;9887;54.366;10.958;2022-11-20T13:16:45;3.65;;;1.92;;
19492;SDS011;9887;54.366;10.958;2022-11-20T13:19:17;4.10;;;2.17;;
19492;SDS011;9887;54.366;10.958;2022-11-20T13:21:46;3.25;;;1.60;;
19492;SDS011;9887;54.366;10.958;2022-11-20T13:24:22;4.18;;;1.58;;
19492;SDS011;9887;54.366;10.958;2022-11-20T13:27:05;3.63;;;1.88;;
19492;SDS011;9887;54.366;10.958;2022-11-20T13:29:47;3.70;;;2.08;;
19492;SDS011;9887;54.366;10.958;2022-11-20T13:32:47;3.40;;;1.80;;
19492;SDS011;9887;54.366;10.958;2022-11-20T13:35:30;4.07;;;2.15;;
19492;SDS011;9887;54.366;10.958;2022-11-20T13:38:00;3.63;;;1.77;;
19492;SDS011;9887;54.366;10.958;2022-11-20T13:40:31;4.15;;;2.05;;
19492;SDS011;9887;54.366;10.958;2022-11-20T13:43:04;4.40;;;2.53;;
19492;SDS011;9887;54.366;10.958;2022-11-20T13:45:38;8.25;;;3.30;;
19492;SDS011;9887;54.366;10.958;2022-11-20T13:48:19;5.63;;;2.05;;
19492;SDS011;9887;54.366;10.958;2022-11-20T13:50:53;4.00;;;1.90;;
19492;SDS011;9887;54.366;10.958;2022-11-20T13:53:31;3.78;;;1.90;;
19492;SDS011;9887;54.366;10.958;2022-11-20T13:56:11;5.28;;;2.40;;
19492;SDS011;9887;54.366;10.958;2022-11-20T13:58:51;4.72;;;1.90;;
19492;SDS011;9887;54.366;10.958;2022-11-20T14:01:30;21.50;;;6.75;;
19492;SDS011;9887;54.366;10.958;2022-11-20T14:04:05;10.70;;;3.28;;
19492;SDS011;9887;54.366;10.958;2022-11-20T14:06:38;14.13;;;6.05;;
19492;SDS011;9887;54.366;10.958;2022-11-20T14:09:10;11.15;;;4.53;;
19492;SDS011;9887;54.366;10.958;2022-11-20T14:11:46;8.63;;;2.60;;
19492;SDS011;9887;54.366;10.958;2022-11-20T14:14:15;4.57;;;2.00;;
19492;SDS011;9887;54.366;10.958;2022-11-20T14:16:45;2.70;;;1.63;;
19492;SDS011;9887;54.366;10.958;2022-11-20T14:19:26;4.25;;;2.08;;
19492;SDS011;9887;54.366;10.958;2022-11-20T14:22:09;4.63;;;2.25;;
19492;SDS011;9887;54.366;10.958;2022-11-20T14:24:43;4.88;;;2.28;;
19492;SDS011;9887;54.366;10.958;2022-11-20T14:27:13;4.10;;;2.00;;
19492;SDS011;9887;54.366;10.958;2022-11-20T14:29:43;5.03;;;2.17;;
19492;SDS011;9887;54.366;10.958;2022-11-20T14:32:14;6.55;;;3.25;;
19492;SDS011;9887;54.366;10.958;2022-11-20T14:34:43;3.75;;;1.73;;
19492;SDS011;9887;54.366;10.958;2022-11-20T14:37:20;5.43;;;2.38;;
19492;SDS011;9887;54.366;10.958;2022-11-20T14:39:51;2.60;;;1.70;;
19492;SDS011;9887;54.366;10.958;2022-11-20T14:42:22;5.22;;;2.60;;
19492;SDS011;9887;54.366;10.958;2022-11-20T14:44:52;8.02;;;4.03;;
19492;SDS011;9887;54.366;10.958;2022-11-20T14:47:23;7.25;;;3.63;;
19492;SDS011;9887;54.366;10.958;2022-11-20T14:49:53;9.25;;;4.72;;
19492;SDS011;9887;54.366;10.958;2022-11-20T14:52:23;8.43;;;3.90;;
19492;SDS011;9887;54.366;10.958;2022-11-20T14:54:52;16.33;;;8.27;;
19492;SDS011;9887;54.366;10.958;2022-11-20T14:57:24;20.88;;;10.15;;
19492;SDS011;9887;54.366;10.958;2022-11-20T15:00:04;9.52;;;5.22;;
19492;SDS011;9887;54.366;10.958;2022-11-20T15:02:34;12.48;;;7.55;;
19492;SDS011;9887;54.366;10.958;2022-11-20T15:05:06;6.97;;;3.55;;
19492;SDS011;9887;54.366;10.958;2022-11-20T15:07:34;5.50;;;3.50;;
19492;SDS011;9887;54.366;10.958;2022-11-20T15:10:04;5.18;;;3.20;;
19492;SDS011;9887;54.366;10.958;2022-11-20T15:12:35;6.32;;;3.92;;
19492;SDS011;9887;54.366;10.958;2022-11-20T15:15:06;7.55;;;3.17;;
19492;SDS011;9887;54.366;10.958;2022-11-20T15:17:39;4.93;;;2.75;;